Time;durP1;ratioP1;P1;durP2;ratioP2;P2;SDS_P1;SDS_P2;PMS_P1;PMS_P2;Temp;Humidity;BMP_temperature;BMP_pressure;BME280_temperature;BME280_humidity;BME280_pressure;Samples;Min_cycle;Max_cycle;Signal;HPM_P1;HPM_P2
2021/10/29 00:00:06;;;;;;;50.70;32.28;;;8.90;99.90;;;;;;5111380;28;20044;-79
2021/10/29 00:02:33;;;;;;;52.53;31.38;;;8.90;99.90;;;;;;5112007;28;20043;-79
2021/10/29 00:05:00;;;;;;;49.00;32.60;;;8.80;99.90;;;;;;5110675;28;20059;-79
2021/10/29 00:07:27;;;;;;;54.38;31.83;;;8.80;99.90;;;;;;5111619;28;20087;-79
2021/10/29 00:09:54;;;;;;;49.67;32.55;;;8.80;99.90;;;;;;5110129;28;20082;-79
2021/10/29 00:12:22;;;;;;;55.47;33.42;;;8.70;99.90;;;;;;5110486;28;20044;-78
2021/10/29 00:14:49;;;;;;;50.83;33.95;;;8.80;99.90;;;;;;5107504;28;20541;-77
2021/10/29 00:17:17;;;;;;;48.88;34.15;;;8.80;99.90;;;;;;5110634;28;20047;-78
2021/10/29 00:19:45;;;;;;;46.40;31.38;;;8.80;99.90;;;;;;5112954;28;20074;-78
2021/10/29 00:22:12;;;;;;;49.85;33.50;;;8.90;99.90;;;;;;5114160;28;20090;-78
2021/10/29 00:24:40;;;;;;;51.67;31.48;;;8.90;99.90;;;;;;5111112;28;20052;-78
2021/10/29 00:27:07;;;;;;;44.85;30.98;;;8.90;99.90;;;;;;5108090;28;20087;-78
2021/10/29 00:29:34;;;;;;;49.13;32.25;;;8.90;99.90;;;;;;5108490;28;20512;-78
2021/10/29 00:32:01;;;;;;;50.80;32.60;;;8.80;99.90;;;;;;5108475;28;20131;-78
2021/10/29 00:34:29;;;;;;;49.40;31.17;;;8.80;99.90;;;;;;5108345;28;20076;-77
2021/10/29 00:36:56;;;;;;;48.33;31.35;;;8.80;99.90;;;;;;5103544;28;20063;-79
2021/10/29 00:39:23;;;;;;;53.78;31.65;;;8.80;99.90;;;;;;5102764;28;20059;-79
2021/10/29 00:41:50;;;;;;;49.63;31.20;;;8.80;99.90;;;;;;5108282;28;20072;-79
2021/10/29 00:44:22;;;;;;;48.72;31.60;;;8.80;99.90;;;;;;5111507;28;20062;-79
2021/10/29 00:46:50;;;;;;;47.88;31.25;;;8.70;99.90;;;;;;5111372;28;20048;-79
2021/10/29 00:49:17;;;;;;;50.15;30.33;;;8.70;99.90;;;;;;5110316;28;20056;-79
2021/10/29 00:51:45;;;;;;;51.15;31.38;;;8.70;99.90;;;;;;5110651;28;20048;-79
2021/10/29 00:54:12;;;;;;;51.67;32.13;;;8.70;99.90;;;;;;5111720;28;20040;-80
2021/10/29 00:56:40;;;;;;;50.30;31.10;;;8.70;99.90;;;;;;5111863;28;20044;-79
2021/10/29 00:59:07;;;;;;;50.45;32.05;;;8.60;99.90;;;;;;5115097;28;20043;-79
2021/10/29 01:01:33;;;;;;;49.03;31.23;;;8.60;99.90;;;;;;5114816;28;20059;-79
2021/10/29 01:04:01;;;;;;;51.50;31.85;;;8.60;99.90;;;;;;5115453;28;20040;-79
2021/10/29 01:06:28;;;;;;;50.45;31.08;;;8.50;99.90;;;;;;5114375;28;20048;-79
2021/10/29 01:08:57;;;;;;;48.72;29.70;;;8.60;99.90;;;;;;5114519;28;20036;-80
2021/10/29 01:11:23;;;;;;;52.13;31.42;;;8.50;99.90;;;;;;5114873;28;20047;-79
2021/10/29 01:13:51;;;;;;;52.28;32.47;;;8.50;99.90;;;;;;5115829;28;20051;-79
2021/10/29 01:16:20;;;;;;;54.80;32.22;;;8.50;99.90;;;;;;5116007;28;20052;-79
2021/10/29 01:18:46;;;;;;;50.22;30.90;;;8.40;99.90;;;;;;5107146;28;20134;-79
2021/10/29 01:21:18;;;;;;;53.88;31.77;;;8.40;99.90;;;;;;5106078;28;20078;-78
2021/10/29 01:23:45;;;;;;;53.60;31.58;;;8.40;99.90;;;;;;5111032;28;20059;-79
2021/10/29 01:26:14;;;;;;;52.78;33.75;;;8.40;99.90;;;;;;5104463;28;20052;-79
2021/10/29 01:28:42;;;;;;;54.17;31.17;;;8.40;99.90;;;;;;5109726;28;20082;-79
2021/10/29 01:31:09;;;;;;;52.50;32.53;;;8.40;99.90;;;;;;5110732;28;20104;-80
2021/10/29 01:33:36;;;;;;;51.97;32.42;;;8.30;99.90;;;;;;5112538;28;20071;-79
2021/10/29 01:36:04;;;;;;;53.35;30.98;;;8.30;99.90;;;;;;5111120;28;20078;-80
2021/10/29 01:38:33;;;;;;;49.30;29.52;;;8.30;99.90;;;;;;5111742;28;20048;-79
2021/10/29 01:41:01;;;;;;;49.33;30.90;;;8.40;99.90;;;;;;5108696;28;20048;-80
2021/10/29 01:43:28;;;;;;;49.80;31.38;;;8.40;99.90;;;;;;5110344;28;20147;-80
2021/10/29 01:45:56;;;;;;;50.90;30.08;;;8.40;99.90;;;;;;5113079;28;20480;-79
2021/10/29 01:48:24;;;;;;;47.85;29.00;;;8.50;99.90;;;;;;5113407;28;20083;-79
2021/10/29 01:50:51;;;;;;;48.65;28.55;;;8.50;99.90;;;;;;5113409;28;20048;-80
2021/10/29 01:53:19;;;;;;;42.67;27.73;;;8.50;99.90;;;;;;5113959;28;20047;-79
2021/10/29 01:55:48;;;;;;;45.50;28.10;;;8.60;99.90;;;;;;5114789;28;20092;-79
2021/10/29 01:58:16;;;;;;;45.90;27.95;;;8.60;99.90;;;;;;5118602;28;20032;-80
2021/10/29 02:00:43;;;;;;;42.92;27.67;;;8.60;99.90;;;;;;5119019;28;20028;-79
2021/10/29 02:03:10;;;;;;;39.78;25.80;;;8.70;99.90;;;;;;5117325;28;20045;-79
2021/10/29 02:05:37;;;;;;;37.67;26.17;;;8.70;99.90;;;;;;5114741;28;20052;-79
2021/10/29 02:08:04;;;;;;;37.90;26.02;;;8.70;99.90;;;;;;5114590;28;20140;-79
2021/10/29 02:10:31;;;;;;;41.38;25.80;;;8.70;99.90;;;;;;5111632;28;20048;-79
2021/10/29 02:13:00;;;;;;;40.47;25.95;;;8.70;99.90;;;;;;5113240;28;20048;-80
2021/10/29 02:15:27;;;;;;;37.40;24.05;;;8.70;99.90;;;;;;5114430;28;20043;-80
2021/10/29 02:17:57;;;;;;;41.33;23.15;;;8.70;99.90;;;;;;5116020;28;20051;-79
2021/10/29 02:20:24;;;;;;;37.35;27.00;;;8.70;99.90;;;;;;5114725;28;20050;-78
2021/10/29 02:22:51;;;;;;;37.80;24.92;;;8.70;99.90;;;;;;5113810;28;20068;-79
2021/10/29 02:25:18;;;;;;;40.42;27.00;;;8.70;99.90;;;;;;5116872;28;20104;-78
2021/10/29 02:27:45;;;;;;;35.03;24.42;;;8.70;99.90;;;;;;5116178;28;20096;-79
2021/10/29 02:30:13;;;;;;;40.50;27.20;;;8.70;99.90;;;;;;5113578;28;20080;-79
2021/10/29 02:32:40;;;;;;;39.10;25.83;;;8.70;99.90;;;;;;5111849;28;20051;-79
2021/10/29 02:35:08;;;;;;;38.72;27.13;;;8.60;99.90;;;;;;5114979;28;20051;-81
2021/10/29 02:37:34;;;;;;;37.83;27.05;;;8.60;99.90;;;;;;5114639;28;20051;-80
2021/10/29 02:40:01;;;;;;;36.97;25.15;;;8.60;99.90;;;;;;5114679;28;20483;-79
2021/10/29 02:42:28;;;;;;;36.85;25.40;;;8.60;99.90;;;;;;5113899;28;20072;-80
2021/10/29 02:44:55;;;;;;;42.17;26.40;;;8.60;99.90;;;;;;5114522;28;20043;-80
2021/10/29 02:47:23;;;;;;;38.55;25.13;;;8.60;99.90;;;;;;5111954;28;20072;-79
2021/10/29 02:49:50;;;;;;;37.33;24.17;;;8.60;99.90;;;;;;5109500;28;20105;-80
2021/10/29 02:52:17;;;;;;;38.72;25.45;;;8.60;99.90;;;;;;5112488;28;20044;-78
2021/10/29 02:54:44;;;;;;;38.00;25.40;;;8.60;99.90;;;;;;5116513;28;20048;-80
2021/10/29 02:57:12;;;;;;;38.22;25.20;;;8.60;99.90;;;;;;5116736;28;20039;-80
2021/10/29 02:59:47;;;;;;;36.28;24.05;;;8.60;99.90;;;;;;5116607;28;20100;-81
2021/10/29 03:02:17;;;;;;;41.35;25.63;;;8.70;99.90;;;;;;5116714;28;20048;-80
2021/10/29 03:04:48;;;;;;;38.25;23.60;;;8.60;99.90;;;;;;5114569;28;20070;-80
2021/10/29 03:07:15;;;;;;;44.13;27.02;;;8.70;99.90;;;;;;5116076;28;20032;-79
2021/10/29 03:09:42;;;;;;;38.72;25.63;;;8.60;99.90;;;;;;5116171;28;20059;-79
2021/10/29 03:12:09;;;;;;;42.38;26.23;;;8.60;99.90;;;;;;5114529;28;20036;-82
2021/10/29 03:14:56;;;;;;;41.10;26.90;;;8.60;99.90;;;;;;5096849;28;20097;-80
2021/10/29 03:17:23;;;;;;;39.85;25.83;;;8.60;99.90;;;;;;5093474;28;20089;-80
2021/10/29 03:23:19;;;;;;;44.58;25.90;;;8.60;99.90;;;;;;5091031;28;20055;-83
2021/10/29 03:26:22;;;;;;;47.25;27.38;;;8.50;99.90;;;;;;5094148;28;20036;-81
2021/10/29 03:29:21;;;;;;;;;;;;;;;;;;;;;
2021/10/29 03:32:18;;;;;;;47.83;27.38;;;8.50;99.90;;;;;;5095012;28;20079;-80
2021/10/29 03:38:55;;;;;;;42.67;26.33;;;8.50;99.90;;;;;;5093114;28;20066;-81
2021/10/29 03:41:35;;;;;;;45.17;27.80;;;8.50;99.90;;;;;;5031694;28;20049;-82
2021/10/29 03:44:40;;;;;;;47.30;28.17;;;8.50;99.90;;;;;;5068602;28;20044;-82
2021/10/29 03:50:32;;;;;;;48.05;29.27;;;8.50;99.90;;;;;;5086667;28;20041;-78
2021/10/29 03:53:03;;;;;;;47.47;28.70;;;8.50;99.90;;;;;;5078149;28;20064;-80
2021/10/29 03:55:35;;;;;;;52.20;28.00;;;8.50;99.90;;;;;;5051905;28;20048;-80
2021/10/29 04:07:52;;;;;;;45.50;27.55;;;8.60;99.90;;;;;;4989033;28;20054;-82
2021/10/29 04:10:25;;;;;;;46.70;27.65;;;8.50;99.90;;;;;;4999800;28;20034;-81
2021/10/29 04:13:10;;;;;;;47.03;28.20;;;8.50;99.90;;;;;;5052159;28;20108;-82
2021/10/29 04:16:09;;;;;;;46.30;28.30;;;8.50;99.90;;;;;;5051419;28;20075;-80
2021/10/29 04:19:45;;;;;;;;;;;;;;;;;;;;;
2021/10/29 04:30:42;;;;;;;45.70;27.25;;;8.60;99.90;;;;;;4942293;28;20108;-81
2021/10/29 04:33:59;;;;;;;46.70;28.10;;;8.50;99.90;;;;;;5013131;28;20052;-81
2021/10/29 04:37:04;;;;;;;44.08;27.98;;;8.60;99.90;;;;;;4973077;29;20067;-80
2021/10/29 04:39:31;;;;;;;47.03;28.65;;;8.60;99.90;;;;;;5010989;28;20078;-80
2021/10/29 04:41:58;;;;;;;49.08;28.80;;;8.60;99.90;;;;;;5035281;28;20058;-80
2021/10/29 04:44:25;;;;;;;47.92;28.70;;;8.60;99.90;;;;;;5034128;28;20068;-79
2021/10/29 04:46:54;;;;;;;45.33;28.75;;;8.60;99.90;;;;;;5032822;28;20160;-80
2021/10/29 04:49:21;;;;;;;50.03;29.08;;;8.70;99.90;;;;;;5030924;28;20050;-79
2021/10/29 04:51:48;;;;;;;48.38;29.70;;;8.70;99.90;;;;;;5031113;28;20092;-78
2021/10/29 04:54:15;;;;;;;51.25;30.70;;;8.70;99.90;;;;;;5031383;28;20078;-80
2021/10/29 04:56:43;;;;;;;50.88;29.35;;;8.70;99.90;;;;;;5033014;28;20064;-80
2021/10/29 04:59:11;;;;;;;50.80;29.80;;;8.70;99.90;;;;;;5035430;28;20040;-80
2021/10/29 05:01:37;;;;;;;50.50;30.63;;;8.80;99.90;;;;;;5034041;28;20061;-79
2021/10/29 05:04:06;;;;;;;42.95;27.58;;;8.80;99.90;;;;;;5021191;28;20109;-81
2021/10/29 05:06:33;;;;;;;49.25;29.35;;;8.80;99.90;;;;;;5030629;28;20030;-81
2021/10/29 05:09:00;;;;;;;51.33;29.48;;;8.80;99.90;;;;;;5042223;23;20061;-77
2021/10/29 05:11:27;;;;;;;53.55;30.40;;;8.80;99.90;;;;;;5006750;28;20082;-80
2021/10/29 05:13:56;;;;;;;51.53;30.15;;;8.70;99.90;;;;;;4996759;28;20052;-79
2021/10/29 05:16:23;;;;;;;48.38;30.42;;;8.80;99.90;;;;;;4996479;28;20046;-78
2021/10/29 05:18:53;;;;;;;53.22;30.15;;;8.70;99.90;;;;;;5013739;28;20042;-77
2021/10/29 05:21:21;;;;;;;55.28;30.63;;;8.60;99.90;;;;;;5014546;28;20057;-77
2021/10/29 05:23:48;;;;;;;52.28;30.52;;;8.60;99.90;;;;;;5014442;28;20491;-77
2021/10/29 05:26:17;;;;;;;51.83;31.15;;;8.50;99.90;;;;;;5013962;28;20081;-78
2021/10/29 05:28:46;;;;;;;58.53;31.58;;;8.50;99.90;;;;;;5013907;28;20421;-77
2021/10/29 05:31:13;;;;;;;49.85;30.35;;;8.50;99.90;;;;;;5015312;28;20058;-77
2021/10/29 05:33:48;;;;;;;58.45;32.88;;;8.50;99.90;;;;;;5014061;28;20459;-79
2021/10/29 05:36:14;;;;;;;52.72;31.52;;;8.40;99.90;;;;;;5014679;28;20458;-77
2021/10/29 05:38:43;;;;;;;56.58;30.45;;;8.50;99.90;;;;;;5014511;28;20128;-75
2021/10/29 05:41:11;;;;;;;50.97;28.35;;;8.50;99.90;;;;;;5015244;28;20050;-76
2021/10/29 05:43:38;;;;;;;48.85;28.75;;;8.50;99.90;;;;;;5014615;28;20072;-78
2021/10/29 05:46:05;;;;;;;51.42;28.02;;;8.60;99.90;;;;;;5014824;28;20096;-78
2021/10/29 05:48:33;;;;;;;46.67;28.23;;;8.60;99.90;;;;;;5017558;28;20054;-78
2021/10/29 05:51:09;;;;;;;44.42;26.98;;;8.60;99.90;;;;;;5015766;28;20518;-78
2021/10/29 05:53:39;;;;;;;47.88;26.58;;;8.70;99.90;;;;;;5016914;28;20390;-78
2021/10/29 05:56:07;;;;;;;44.45;26.63;;;8.70;99.90;;;;;;5013918;28;20050;-76
2021/10/29 05:58:36;;;;;;;47.95;27.85;;;8.80;99.90;;;;;;5014453;28;20157;-75
2021/10/29 06:01:04;;;;;;;46.60;26.05;;;8.80;99.90;;;;;;5013761;28;20140;-75
2021/10/29 06:03:30;;;;;;;48.92;28.70;;;8.80;99.90;;;;;;5014121;28;20046;-73
2021/10/29 06:05:58;;;;;;;44.60;27.42;;;8.80;99.90;;;;;;5013509;28;20589;-75
2021/10/29 06:08:26;;;;;;;51.55;27.65;;;8.80;99.90;;;;;;5013679;28;20049;-75
2021/10/29 06:10:53;;;;;;;47.58;25.77;;;8.90;99.90;;;;;;5013382;28;20053;-75
2021/10/29 06:13:21;;;;;;;44.75;26.70;;;8.90;99.90;;;;;;5013276;28;20050;-75
2021/10/29 06:15:48;;;;;;;42.28;24.63;;;8.90;99.90;;;;;;5013417;28;20056;-74
2021/10/29 06:18:22;;;;;;;49.95;26.85;;;8.90;99.90;;;;;;5014393;28;20473;-75
2021/10/29 06:20:50;;;;;;;40.17;24.30;;;8.90;99.90;;;;;;5013689;28;20140;-75
2021/10/29 06:23:20;;;;;;;46.10;26.17;;;8.90;99.90;;;;;;5013359;28;20064;-75
2021/10/29 06:25:48;;;;;;;43.70;25.17;;;8.90;99.90;;;;;;5004329;28;20421;-75
2021/10/29 06:28:21;;;;;;;45.05;26.88;;;9.00;99.90;;;;;;4993558;28;20707;-77
2021/10/29 06:30:49;;;;;;;46.30;27.48;;;8.90;99.90;;;;;;4998830;28;20137;-77
2021/10/29 06:33:19;;;;;;;49.15;27.33;;;8.90;99.90;;;;;;5003134;28;20128;-77
2021/10/29 06:35:47;;;;;;;46.55;25.48;;;8.90;99.90;;;;;;5001400;28;20391;-77
2021/10/29 06:38:14;;;;;;;45.80;26.00;;;8.90;99.90;;;;;;5002062;28;20141;-77
2021/10/29 06:40:43;;;;;;;45.63;26.15;;;8.90;99.90;;;;;;5009201;28;20092;-77
2021/10/29 06:43:14;;;;;;;42.90;25.40;;;8.90;99.90;;;;;;5013350;28;20439;-77
2021/10/29 06:48:34;;;;;;;47.58;26.88;;;8.80;99.90;;;;;;4995525;28;20069;-75
2021/10/29 06:59:22;;;;;;;42.53;24.48;;;8.80;99.90;;;;;;5001671;28;20124;-77
2021/10/29 07:01:55;;;;;;;49.70;27.23;;;8.80;99.90;;;;;;5009452;28;20403;-76
2021/10/29 07:40:18;;;;;;;36.65;21.80;;;9.30;99.90;;;;;;4992587;28;20239;-76
2021/10/29 07:42:52;;;;;;;37.42;22.15;;;9.40;99.90;;;;;;4992721;28;20510;-76
2021/10/29 07:45:20;;;;;;;36.53;22.38;;;9.40;99.90;;;;;;4992917;28;20058;-77
2021/10/29 07:47:47;;;;;;;35.88;21.48;;;9.50;99.90;;;;;;4992296;28;20053;-75
2021/10/29 07:50:16;;;;;;;34.10;21.88;;;9.60;99.90;;;;;;4992424;28;20047;-76
2021/10/29 07:52:47;;;;;;;31.70;20.42;;;9.60;99.90;;;;;;4992561;28;20497;-75
2021/10/29 07:55:16;;;;;;;34.00;21.70;;;9.60;99.90;;;;;;4992141;28;20149;-75
2021/10/29 07:57:46;;;;;;;33.88;22.38;;;9.70;99.90;;;;;;4992657;28;20112;-75
2021/10/29 08:00:14;;;;;;;31.02;20.15;;;9.60;99.90;;;;;;4992049;28;20224;-74
2021/10/29 08:02:41;;;;;;;32.75;21.58;;;9.70;99.90;;;;;;4991977;28;20051;-75
2021/10/29 08:05:09;;;;;;;34.05;21.30;;;9.70;99.90;;;;;;4991908;28;20050;-75
2021/10/29 08:07:36;;;;;;;32.47;21.13;;;9.70;99.90;;;;;;4992030;28;20061;-75
2021/10/29 08:10:06;;;;;;;32.75;20.10;;;9.80;99.90;;;;;;4991959;28;20157;-75
2021/10/29 08:12:34;;;;;;;31.10;20.95;;;9.80;99.90;;;;;;4992177;28;20050;-75
2021/10/29 08:15:02;;;;;;;30.90;20.88;;;9.80;99.90;;;;;;4992149;28;20153;-78
2021/10/29 08:17:31;;;;;;;34.22;20.55;;;9.80;99.90;;;;;;4992301;28;20163;-76
2021/10/29 08:19:58;;;;;;;35.95;21.65;;;9.80;99.90;;;;;;4991859;28;20380;-75
2021/10/29 08:22:25;;;;;;;32.95;21.25;;;9.80;99.90;;;;;;4991933;28;20054;-75
2021/10/29 08:24:52;;;;;;;32.05;20.83;;;9.80;99.90;;;;;;4991714;28;20141;-76
2021/10/29 08:27:21;;;;;;;28.58;18.25;;;9.80;99.90;;;;;;4992180;28;20101;-76
2021/10/29 08:29:48;;;;;;;29.60;19.35;;;9.80;99.90;;;;;;4992213;28;20061;-77
2021/10/29 08:32:15;;;;;;;29.13;19.67;;;9.90;99.90;;;;;;4992302;28;20050;-77
2021/10/29 08:34:42;;;;;;;31.08;20.92;;;9.90;99.90;;;;;;4991860;28;20074;-75
2021/10/29 08:37:09;;;;;;;31.50;19.95;;;9.90;99.90;;;;;;4991432;28;20082;-76
2021/10/29 08:39:38;;;;;;;28.70;18.85;;;10.00;99.90;;;;;;4991806;28;20086;-76
2021/10/29 08:42:06;;;;;;;32.70;20.40;;;10.10;99.90;;;;;;4991992;28;20056;-76
2021/10/29 08:44:36;;;;;;;32.05;18.83;;;10.10;99.90;;;;;;4991650;28;20130;-75
2021/10/29 08:47:04;;;;;;;31.38;19.58;;;10.20;99.90;;;;;;4991768;28;20149;-75
2021/10/29 08:49:33;;;;;;;30.13;18.48;;;10.30;99.90;;;;;;4991630;28;20133;-77
2021/10/29 08:52:01;;;;;;;30.05;18.30;;;10.40;99.90;;;;;;4991888;28;20054;-75
2021/10/29 08:54:28;;;;;;;30.70;19.05;;;10.50;99.90;;;;;;4992002;28;20043;-75
2021/10/29 08:56:56;;;;;;;23.00;16.50;;;10.60;99.90;;;;;;4991671;28;20133;-75
2021/10/29 08:59:27;;;;;;;28.92;18.35;;;10.70;99.90;;;;;;4992080;28;20062;-75
2021/10/29 09:01:59;;;;;;;24.50;17.63;;;10.70;99.90;;;;;;4992227;28;20065;-75
2021/10/29 09:07:34;;;;;;;26.05;16.95;;;10.80;99.90;;;;;;4988817;28;20042;-75
2021/10/29 09:32:22;;;;;;;21.85;13.52;;;11.70;99.90;;;;;;4994788;28;20552;-76
2021/10/29 09:35:06;;;;;;;19.52;13.88;;;11.80;99.90;;;;;;4994531;28;20513;-75
2021/10/29 09:37:38;;;;;;;18.98;14.02;;;11.90;99.90;;;;;;4994621;28;20061;-78
2021/10/29 09:40:10;;;;;;;17.65;13.40;;;11.90;99.90;;;;;;4994732;28;20554;-77
2021/10/29 09:42:39;;;;;;;18.63;13.43;;;11.90;99.90;;;;;;4994873;28;20133;-77
2021/10/29 09:45:14;;;;;;;17.65;13.63;;;11.90;99.90;;;;;;4994641;28;20077;-78
2021/10/29 09:47:46;;;;;;;20.17;12.70;;;11.90;99.90;;;;;;4994514;28;20602;-76
2021/10/29 09:50:23;;;;;;;22.95;14.85;;;12.00;99.90;;;;;;4994549;28;20137;-77
2021/10/29 09:55:51;;;;;;;20.55;13.70;;;12.00;99.90;;;;;;4992210;28;20050;-77
2021/10/29 09:58:19;;;;;;;19.13;13.57;;;12.10;99.90;;;;;;4994378;28;20105;-76
2021/10/29 10:00:47;;;;;;;20.00;14.02;;;12.10;99.90;;;;;;4994122;28;20133;-76
2021/10/29 10:03:19;;;;;;;18.80;13.50;;;12.20;99.90;;;;;;4994643;28;20086;-76
2021/10/29 10:05:48;;;;;;;17.98;13.18;;;12.30;99.90;;;;;;4994272;28;20058;-77
2021/10/29 10:08:20;;;;;;;18.02;13.77;;;12.30;99.90;;;;;;4994495;28;20525;-76
2021/10/29 10:10:50;;;;;;;18.08;13.48;;;12.40;99.90;;;;;;4994676;28;20046;-77
2021/10/29 10:13:19;;;;;;;19.75;13.25;;;12.50;99.90;;;;;;4994832;28;20330;-76
2021/10/29 10:15:52;;;;;;;19.23;13.23;;;12.50;99.90;;;;;;4994316;28;20055;-76
2021/10/29 10:18:20;;;;;;;21.23;13.88;;;12.60;99.90;;;;;;4994619;28;20062;-76
2021/10/29 10:20:49;;;;;;;17.33;11.98;;;12.70;99.90;;;;;;4994034;28;20082;-76
2021/10/29 10:23:20;;;;;;;17.05;11.90;;;12.80;99.90;;;;;;4993762;28;20046;-77
2021/10/29 10:28:57;;;;;;;17.30;12.07;;;13.20;99.90;;;;;;4961173;28;20514;-76
2021/10/29 10:40:28;;;;;;;13.98;10.60;;;13.70;99.90;;;;;;4993583;28;20061;-76
2021/10/29 10:43:15;;;;;;;14.82;10.63;;;13.80;99.90;;;;;;4993661;28;20058;-77
2021/10/29 10:45:49;;;;;;;14.60;10.40;;;13.90;99.90;;;;;;4993172;28;20061;-76
2021/10/29 10:48:22;;;;;;;14.80;9.68;;;14.00;99.90;;;;;;4993548;28;20068;-77
2021/10/29 10:50:52;;;;;;;14.18;10.00;;;14.10;99.90;;;;;;4993686;28;20153;-76
2021/10/29 10:53:29;;;;;;;14.25;9.43;;;14.10;99.90;;;;;;4996173;28;20057;-76
2021/10/29 10:58:58;;;;;;;15.57;9.95;;;14.20;99.90;;;;;;4999599;28;20085;-72
2021/10/29 11:01:59;;;;;;;14.52;9.98;;;14.20;99.90;;;;;;4993724;28;20097;-75
2021/10/29 11:04:48;;;;;;;11.77;9.05;;;14.30;99.90;;;;;;4993753;28;20093;-76
2021/10/29 11:10:18;;;;;;;11.98;8.88;;;14.40;99.90;;;;;;5016799;23;20116;-79
2021/10/29 11:13:16;;;;;;;13.85;9.13;;;14.60;99.90;;;;;;4994193;28;20062;-78
2021/10/29 11:16:01;;;;;;;12.57;9.55;;;14.70;99.90;;;;;;4993125;28;20387;-76
2021/10/29 11:18:35;;;;;;;14.57;8.60;;;14.80;99.90;;;;;;4993906;28;20069;-77
2021/10/29 11:21:18;;;;;;;11.73;8.75;;;14.90;99.90;;;;;;4993921;28;20046;-78
2021/10/29 11:23:51;;;;;;;10.98;8.45;;;15.00;99.90;;;;;;4993256;28;20082;-77
2021/10/29 11:26:29;;;;;;;9.98;8.10;;;14.90;99.90;;;;;;4994844;28;20058;-78
2021/10/29 11:28:58;;;;;;;11.63;8.50;;;14.90;99.90;;;;;;4994184;28;20050;-79
2021/10/29 11:31:28;;;;;;;12.25;8.55;;;14.90;99.90;;;;;;4994214;28;20192;-78
2021/10/29 11:33:58;;;;;;;12.02;8.32;;;14.90;99.90;;;;;;4994639;28;20050;-77
2021/10/29 11:36:27;;;;;;;12.70;7.72;;;15.00;99.90;;;;;;4995120;28;20074;-77
2021/10/29 11:38:55;;;;;;;9.80;7.97;;;15.00;99.90;;;;;;4999593;28;20053;-76
2021/10/29 11:41:25;;;;;;;10.90;7.68;;;15.00;99.90;;;;;;4994478;28;20058;-75
2021/10/29 11:43:53;;;;;;;12.63;7.25;;;15.10;99.90;;;;;;4995553;28;20047;-79
2021/10/29 11:46:24;;;;;;;12.70;8.20;;;15.20;99.90;;;;;;4995383;28;20054;-76
2021/10/29 11:48:59;;;;;;;11.27;7.60;;;15.30;99.90;;;;;;4995014;28;20106;-77
2021/10/29 11:51:27;;;;;;;13.45;7.97;;;15.30;99.90;;;;;;4993796;28;20065;-76
2021/10/29 11:53:58;;;;;;;13.00;8.07;;;15.40;99.90;;;;;;4993246;28;20510;-76
2021/10/29 11:56:33;;;;;;;12.60;7.47;;;15.50;99.90;;;;;;4993132;28;20082;-78
2021/10/29 11:59:15;;;;;;;9.48;7.30;;;15.60;99.90;;;;;;4993651;28;20081;-78
2021/10/29 12:01:55;;;;;;;11.18;7.57;;;15.80;99.90;;;;;;4993169;28;20498;-78
2021/10/29 12:07:17;;;;;;;13.15;7.50;;;16.20;99.90;;;;;;4993469;28;20076;-77
2021/10/29 12:09:46;;;;;;;10.43;7.32;;;16.30;99.90;;;;;;4993015;28;20050;-77
2021/10/29 12:12:16;;;;;;;9.88;6.90;;;16.40;99.90;;;;;;4993496;28;20137;-78
2021/10/29 12:14:45;;;;;;;8.60;6.60;;;16.50;99.90;;;;;;4993012;28;20046;-78
2021/10/29 12:17:18;;;;;;;9.40;6.80;;;16.50;99.90;;;;;;4992866;28;20117;-77
2021/10/29 12:19:47;;;;;;;8.65;6.97;;;16.60;99.90;;;;;;4992785;28;20487;-80
2021/10/29 12:22:28;;;;;;;10.95;6.32;;;16.50;99.90;;;;;;4992841;28;20050;-77
2021/10/29 12:24:59;;;;;;;8.00;6.70;;;16.50;99.90;;;;;;4992556;28;20494;-77
2021/10/29 12:27:30;;;;;;;12.70;7.13;;;16.60;99.90;;;;;;4992460;28;20161;-77
2021/10/29 12:30:07;;;;;;;8.75;6.65;;;16.50;99.90;;;;;;4993185;28;20082;-77
2021/10/29 12:32:58;;;;;;;9.23;6.50;;;16.60;99.90;;;;;;4993589;28;20499;-77
2021/10/29 13:01:35;;;;;;;8.23;6.40;;;16.70;99.90;;;;;;4996480;28;20060;-80
2021/10/29 13:04:05;;;;;;;14.00;6.40;;;16.80;99.90;;;;;;4996013;28;20558;-78
2021/10/29 13:06:35;;;;;;;9.10;6.15;;;16.90;99.90;;;;;;4996087;28;20054;-78
2021/10/29 13:09:12;;;;;;;11.65;6.55;;;17.00;99.90;;;;;;4996079;28;20057;-78
2021/10/29 13:11:44;;;;;;;15.32;6.15;;;17.10;99.90;;;;;;4996128;28;20383;-77
2021/10/29 13:14:13;;;;;;;9.50;6.03;;;17.20;99.90;;;;;;4995604;28;20430;-77
2021/10/29 13:16:41;;;;;;;10.90;6.20;;;17.30;99.90;;;;;;4996474;28;20082;-78
2021/10/29 13:27:50;;;;;;;8.65;6.10;;;18.00;99.90;;;;;;4996931;28;20043;-77
2021/10/29 13:36:14;;;;;;;8.55;4.80;;;18.30;99.90;;;;;;4996840;28;20049;-76
2021/10/29 14:03:41;;;;;;;14.23;5.40;;;18.20;99.90;;;;;;4997442;28;20100;-78
2021/10/29 14:28:15;;;;;;;6.47;4.72;;;18.10;99.90;;;;;;4995996;28;20057;-78
2021/10/29 14:30:48;;;;;;;6.80;4.75;;;18.10;99.90;;;;;;4995380;28;20050;-78
2021/10/29 14:33:18;;;;;;;7.40;4.57;;;18.10;99.90;;;;;;4995572;28;20176;-78
2021/10/29 14:35:49;;;;;;;9.27;4.80;;;18.00;99.90;;;;;;4995189;28;20507;-77
2021/10/29 14:38:22;;;;;;;7.13;4.90;;;18.00;99.90;;;;;;4996171;28;20050;-77
2021/10/29 14:40:51;;;;;;;6.20;4.68;;;18.00;99.90;;;;;;4995138;28;20056;-78
2021/10/29 14:43:22;;;;;;;8.82;4.40;;;18.00;99.90;;;;;;4994960;28;20057;-77
2021/10/29 14:45:58;;;;;;;7.85;4.55;;;18.00;99.90;;;;;;4995336;28;20050;-79
2021/10/29 14:48:36;;;;;;;9.32;4.70;;;18.00;99.90;;;;;;4994916;28;20055;-78
2021/10/29 15:02:32;;;;;;;8.07;5.20;;;17.90;99.90;;;;;;4996006;28;20058;-77
2021/10/29 15:16:24;;;;;;;7.53;4.82;;;17.70;99.90;;;;;;5153259;27;20058;-78
2021/10/29 15:27:21;;;;;;;10.27;5.13;;;17.50;99.90;;;;;;5084839;28;20120;-78
2021/10/29 15:29:54;;;;;;;8.63;5.35;;;17.50;99.90;;;;;;5085212;28;20045;-81
2021/10/29 15:41:11;;;;;;;14.20;7.35;;;17.30;99.90;;;;;;5083087;28;20115;-79
2021/10/29 15:46:40;;;;;;;11.32;5.55;;;17.20;99.90;;;;;;5081522;28;20123;-79
2021/10/29 15:49:18;;;;;;;8.77;5.60;;;17.10;99.90;;;;;;5081454;28;20147;-80
2021/10/29 15:51:49;;;;;;;9.48;5.63;;;17.00;99.90;;;;;;5085010;28;20053;-80
2021/10/29 15:54:16;;;;;;;8.43;5.20;;;16.90;99.90;;;;;;5084136;28;20055;-80
2021/10/29 15:56:48;;;;;;;8.30;4.75;;;16.90;99.90;;;;;;5083253;28;20044;-78
2021/10/29 15:59:23;;;;;;;6.70;4.75;;;16.80;99.90;;;;;;5083038;28;20079;-79
2021/10/29 16:01:54;;;;;;;10.70;5.00;;;16.70;99.90;;;;;;5083613;28;20140;-80
2021/10/29 16:18:06;;;;;;;11.00;5.60;;;16.10;99.90;;;;;;5075728;28;20083;-80
2021/10/29 16:20:33;;;;;;;7.65;5.50;;;16.00;99.90;;;;;;5065684;28;20081;-78
2021/10/29 16:23:02;;;;;;;14.23;5.47;;;15.90;99.90;;;;;;5067790;28;20049;-79
2021/10/29 16:25:32;;;;;;;10.38;5.72;;;15.90;99.90;;;;;;5066363;28;20048;-81
2021/10/29 16:28:03;;;;;;;13.23;5.90;;;15.80;99.90;;;;;;5066946;28;20085;-80
2021/10/29 16:30:32;;;;;;;9.55;6.55;;;15.80;99.90;;;;;;5068349;28;20059;-80
2021/10/29 16:33:23;;;;;;;9.68;6.15;;;15.70;99.90;;;;;;5068703;28;20121;-79
2021/10/29 16:35:50;;;;;;;7.75;6.00;;;15.60;99.90;;;;;;5068857;28;20072;-79
2021/10/29 16:38:17;;;;;;;8.63;6.28;;;15.50;99.90;;;;;;5067212;28;20084;-79
2021/10/29 16:40:43;;;;;;;9.68;6.82;;;15.40;99.90;;;;;;5064649;28;20076;-82
2021/10/29 16:43:12;;;;;;;9.40;6.22;;;15.40;99.90;;;;;;5065335;28;20128;-82
2021/10/29 16:45:43;;;;;;;11.48;6.07;;;15.30;99.90;;;;;;5067481;28;20053;-79
2021/10/29 16:48:11;;;;;;;8.65;6.32;;;15.30;99.90;;;;;;5067895;28;20119;-78
2021/10/29 16:50:38;;;;;;;10.85;7.07;;;15.30;99.90;;;;;;5067705;28;20080;-79
2021/10/29 16:53:06;;;;;;;8.60;6.53;;;15.30;99.90;;;;;;5068592;28;20076;-80
2021/10/29 16:55:32;;;;;;;9.10;6.18;;;15.20;99.90;;;;;;5065716;28;20425;-78
2021/10/29 16:57:59;;;;;;;7.82;6.18;;;15.30;99.90;;;;;;5065620;28;20549;-79
2021/10/29 17:00:28;;;;;;;10.02;6.65;;;15.30;99.90;;;;;;5066510;28;20085;-79
2021/10/29 17:02:55;;;;;;;12.73;6.82;;;15.30;99.90;;;;;;5069122;28;20083;-80
2021/10/29 17:05:21;;;;;;;8.13;5.90;;;15.30;99.90;;;;;;5068583;28;20084;-80
2021/10/29 17:07:48;;;;;;;10.38;6.45;;;15.30;99.90;;;;;;5068001;28;20083;-80
2021/10/29 17:10:18;;;;;;;11.65;6.68;;;15.30;99.90;;;;;;5069815;28;20075;-79
2021/10/29 17:12:45;;;;;;;9.35;6.50;;;15.30;99.90;;;;;;5069285;28;20052;-79
2021/10/29 17:15:14;;;;;;;9.40;6.50;;;15.30;99.90;;;;;;5067310;28;20135;-79
2021/10/29 17:17:43;;;;;;;7.57;6.22;;;15.30;99.90;;;;;;5069171;28;20099;-79
2021/10/29 17:20:12;;;;;;;9.75;6.50;;;15.20;99.90;;;;;;5069265;28;20057;-79
2021/10/29 17:22:40;;;;;;;7.68;6.57;;;15.30;99.90;;;;;;5070391;28;20088;-79
2021/10/29 17:25:07;;;;;;;13.25;6.95;;;15.30;99.90;;;;;;5068629;28;20056;-79
2021/10/29 17:27:35;;;;;;;10.23;6.85;;;15.30;99.90;;;;;;5067406;28;20409;-78